createdAt,value
2022-08-01T00:00:56.415Z,100071.34
2022-08-01T00:03:26.112Z,100060.94
2022-08-01T00:05:53.678Z,100065.28
2022-08-01T00:08:24.274Z,100065.31
2022-08-01T00:10:54.049Z,100059.19
2022-08-01T00:13:21.623Z,100053.16
2022-08-01T00:15:53.731Z,100049.63
2022-08-01T00:18:22.241Z,100060.97
2022-08-01T00:20:49.902Z,100047.94
2022-08-01T00:23:17.415Z,100045.34
2022-08-01T00:25:44.965Z,100037.47
2022-08-01T00:28:14.528Z,100032.28
2022-08-01T00:30:42.004Z,100037.44
2022-08-01T00:33:09.486Z,100049.59
2022-08-01T00:35:37.008Z,100039.13
2022-08-01T00:38:04.547Z,100049.59
2022-08-01T00:40:32.164Z,100035.66
2022-08-01T00:42:59.675Z,100053.94
2022-08-01T00:45:27.387Z,100047.81
2022-08-01T00:47:55.554Z,100049.56
2022-08-01T00:50:24.875Z,100051.28
2022-08-01T00:52:52.934Z,100058.25
2022-08-01T00:55:21.546Z,100061.66
2022-08-01T00:58:04.617Z,100046.91
2022-08-01T01:00:52.065Z,100058.25
2022-08-01T01:03:26.368Z,100053.84
2022-08-01T01:06:18.580Z,100049.47
2022-08-01T01:09:10.394Z,100059.06
2022-08-01T01:12:11.680Z,100057.31
2022-08-01T01:14:58.007Z,100060.75
2022-08-01T01:17:50.999Z,100054.63
2022-08-01T01:20:22.719Z,100052.03
2022-08-01T01:23:08.239Z,100055.50
2022-08-01T01:25:38.635Z,100046.75
2022-08-01T01:28:08.912Z,100054.56
2022-08-01T01:30:40.028Z,100045.84
2022-08-01T01:33:11.703Z,100056.31
2022-08-01T01:35:52.915Z,100050.19
2022-08-01T01:38:27.395Z,100058.00
2022-08-01T01:40:58.749Z,100047.59
2022-08-01T01:43:28.761Z,100053.66
2022-08-01T01:46:03.726Z,100048.41
2022-08-01T01:48:33.794Z,100051.00
2022-08-01T01:51:02.390Z,100044.91
2022-08-01T01:53:33.184Z,100044.06
2022-08-01T01:56:02.841Z,100056.25
2022-08-01T01:58:34.204Z,100059.72
2022-08-01T02:01:03.717Z,100058.00
2022-08-01T02:03:33.428Z,100049.34
2022-08-01T02:06:02.735Z,100044.97
2022-08-01T02:08:32.370Z,100037.16
2022-08-01T02:11:21.852Z,100044.09
2022-08-01T02:14:00.546Z,100054.63
2022-08-01T02:16:32.789Z,100045.03
2022-08-01T02:19:00.993Z,100052.00
2022-08-01T02:21:42.601Z,100044.16
2022-08-01T02:24:32.946Z,100047.63
2022-08-01T02:27:05.198Z,100031.94
2022-08-01T02:29:56.347Z,100050.28
2022-08-01T02:32:58.354Z,100031.16
2022-08-01T02:35:29.683Z,100032.88
2022-08-01T02:37:59.690Z,100033.81
2022-08-01T02:40:29.372Z,100039.19
2022-08-01T02:42:59.159Z,100050.66
2022-08-01T02:45:28.306Z,100049.78
2022-08-01T02:48:00.595Z,100037.66
2022-08-01T02:50:30.944Z,100052.41
2022-08-01T02:52:59.916Z,100044.59
2022-08-01T02:55:30.108Z,100048.06
2022-08-01T02:58:00.966Z,100042.84
2022-08-01T03:00:31.004Z,100040.31
2022-08-01T03:03:00.823Z,100047.28
2022-08-01T03:05:29.191Z,100045.56
2022-08-01T03:08:02.790Z,100050.75
2022-08-01T03:10:33.227Z,100045.56
2022-08-01T03:13:02.567Z,100041.22
2022-08-01T03:15:33.241Z,100046.44
2022-08-01T03:18:02.168Z,100050.78
2022-08-01T03:20:32.222Z,100043.00
2022-08-01T03:23:02.693Z,100051.69
2022-08-01T03:25:36.603Z,100052.56
2022-08-01T03:28:05.902Z,100049.97
2022-08-01T03:30:36.806Z,100047.34
2022-08-01T03:33:04.694Z,100039.50
2022-08-01T03:35:45.005Z,100038.66
2022-08-01T03:38:18.228Z,100033.44
2022-08-01T03:40:51.016Z,100045.66
2022-08-01T03:43:58.712Z,100047.38
2022-08-01T03:46:48.752Z,100038.69
2022-08-01T03:49:21.250Z,100039.53
2022-08-01T03:51:51.139Z,100037.78
2022-08-01T03:54:22.820Z,100043.88
2022-08-01T03:56:52.550Z,100030.81
2022-08-01T03:59:21.605Z,100034.31
2022-08-01T04:01:50.045Z,100029.91
2022-08-01T04:04:17.654Z,100021.19
2022-08-01T04:06:46.043Z,100032.50
2022-08-01T04:09:14.078Z,100026.41
2022-08-01T04:11:44.669Z,100031.63
2022-08-01T04:14:12.277Z,100029.84
2022-08-01T04:16:39.875Z,100027.25
2022-08-01T04:19:08.687Z,100022.88
2022-08-01T04:21:37.019Z,100026.38
2022-08-01T04:24:14.719Z,100027.22
2022-08-01T04:26:45.338Z,100034.22
2022-08-01T04:29:15.286Z,100042.03
2022-08-01T04:31:46.421Z,100037.66
2022-08-01T04:34:17.164Z,100040.25
2022-08-01T04:36:46.977Z,100036.75
2022-08-01T04:39:16.578Z,100025.41
2022-08-01T04:41:47.747Z,100038.44
2022-08-01T04:44:15.704Z,100041.88
2022-08-01T04:46:44.818Z,100036.59
2022-08-01T04:49:12.916Z,100041.75
2022-08-01T04:51:52.085Z,100039.94
2022-08-01T04:54:19.840Z,100029.47
2022-08-01T04:56:47.321Z,100038.13
2022-08-01T04:59:37.864Z,100041.59
2022-08-01T05:02:05.856Z,100045.91
2022-08-01T05:04:33.643Z,100049.41
2022-08-01T05:07:01.333Z,100042.38
2022-08-01T05:09:31.205Z,100047.56
2022-08-01T05:12:04.863Z,100047.63
2022-08-01T05:14:33.581Z,100039.75
2022-08-01T05:17:06.294Z,100048.47
2022-08-01T05:19:35.174Z,100049.28
2022-08-01T05:22:05.972Z,100042.31
2022-08-01T05:24:35.168Z,100042.22
2022-08-01T05:27:04.683Z,100037.72
2022-08-01T05:29:32.514Z,100034.97
2022-08-01T05:32:00.682Z,100030.41
2022-08-01T05:34:28.720Z,100030.47
2022-08-01T05:36:57.937Z,100036.53
2022-08-01T05:39:25.693Z,100025.06
2022-08-01T05:41:58.043Z,100023.06
2022-08-01T05:44:28.766Z,100029.94
2022-08-01T05:46:56.411Z,100020.16
2022-08-01T05:49:26.504Z,100025.28
2022-08-01T05:51:54.046Z,100030.53
2022-08-01T05:54:21.529Z,100028.84
2022-08-01T05:56:49.144Z,100024.53
2022-08-01T05:59:18.968Z,100025.31
2022-08-01T06:01:46.551Z,100022.53
2022-08-01T06:04:14.301Z,100028.28
2022-08-01T06:06:41.775Z,100027.03
2022-08-01T06:09:09.363Z,100019.69
2022-08-01T06:11:36.846Z,100019.94
2022-08-01T06:14:04.500Z,100016.06
2022-08-01T06:16:32.062Z,100022.63
2022-08-01T06:18:59.570Z,100029.28
2022-08-01T06:21:27.140Z,100027.09
2022-08-01T06:23:54.652Z,100025.94
2022-08-01T06:26:22.258Z,100029.28
2022-08-01T06:28:49.773Z,100027.44
2022-08-01T06:31:17.356Z,100024.19
2022-08-01T06:33:44.818Z,100015.56
2022-08-01T06:36:12.434Z,100033.56
2022-08-01T06:38:39.905Z,100031.88
2022-08-01T06:41:07.363Z,100027.34
2022-08-01T06:43:35.110Z,100035.13
2022-08-01T06:46:02.653Z,100037.31
2022-08-01T06:48:32.322Z,100028.25
2022-08-01T06:51:09.258Z,100025.22
2022-08-01T06:53:38.281Z,100041.28
2022-08-01T06:56:07.263Z,100035.53
2022-08-01T06:58:35.735Z,100044.91
2022-08-01T07:01:07.148Z,100049.06
2022-08-01T07:03:52.785Z,100046.84
2022-08-01T07:06:25.883Z,100042.75
2022-08-01T07:08:54.231Z,100039.19
2022-08-01T07:11:23.497Z,100028.53
2022-08-01T07:13:51.263Z,100035.16
2022-08-01T07:16:19.171Z,100046.50
2022-08-01T07:18:46.747Z,100043.81
2022-08-01T07:21:38.911Z,100039.06
2022-08-01T07:24:02.066Z,100041.16
2022-08-01T07:26:52.223Z,100038.16
2022-08-01T07:29:25.855Z,100038.00
2022-08-01T07:31:56.029Z,100039.78
2022-08-01T07:34:24.854Z,100033.09
2022-08-01T07:36:53.280Z,100029.34
2022-08-01T07:39:20.891Z,100025.84
2022-08-01T07:42:05.910Z,100028.59
2022-08-01T07:44:36.640Z,100033.38
2022-08-01T07:47:06.455Z,100031.59
2022-08-01T07:49:39.439Z,100034.69
2022-08-01T07:52:08.949Z,100031.50
2022-08-01T07:54:36.824Z,100035.69
2022-08-01T07:57:04.783Z,100033.09
2022-08-01T07:59:32.384Z,100023.72
2022-08-01T08:02:00.291Z,100025.38
2022-08-01T08:04:29.107Z,100026.44
2022-08-01T08:06:56.819Z,100028.69
2022-08-01T08:09:24.351Z,100022.13
2022-08-01T08:11:51.985Z,100019.41
2022-08-01T08:14:20.278Z,100017.53
2022-08-01T08:16:47.859Z,100013.28
2022-08-01T08:19:15.504Z,100015.06
2022-08-01T08:21:43.085Z,100011.97
2022-08-01T08:24:20.528Z,100019.28
2022-08-01T08:26:56.003Z,100023.66
2022-08-01T08:29:24.352Z,100012.16
2022-08-01T08:31:55.869Z,100012.66
2022-08-01T08:34:25.716Z,100000.34
2022-08-01T08:36:54.197Z,100009.63
2022-08-01T08:39:22.128Z,100009.66
2022-08-01T08:41:50.354Z,99998.09
2022-08-01T08:44:19.014Z,100008.72
2022-08-01T08:46:52.708Z,99998.84
2022-08-01T08:49:23.919Z,100000.19
2022-08-01T08:51:52.723Z,99987.09
2022-08-01T08:54:30.955Z,99989.50
2022-08-01T08:57:01.439Z,99990.63
2022-08-01T08:59:29.621Z,99990.84
2022-08-01T09:01:58.462Z,99997.38
2022-08-01T09:04:27.594Z,99995.00
2022-08-01T09:06:55.889Z,99990.84
2022-08-01T09:09:24.490Z,99984.91
2022-08-01T09:11:56.722Z,99987.47
2022-08-01T09:14:31.043Z,99988.16
2022-08-01T09:17:07.804Z,99991.22
2022-08-01T09:19:41.897Z,99980.06
2022-08-01T09:22:12.888Z,99976.41
2022-08-01T09:24:41.689Z,99985.34
2022-08-01T09:27:24.336Z,99983.91
2022-08-01T09:30:01.556Z,99983.22
2022-08-01T09:32:36.040Z,99966.72
2022-08-01T09:35:36.420Z,99981.81
2022-08-01T09:38:30.135Z,99968.84
2022-08-01T09:41:00.180Z,99983.84
2022-08-01T09:43:31.942Z,99974.47
2022-08-01T09:46:05.393Z,99974.81
2022-08-01T09:48:33.795Z,99974.47
2022-08-01T09:51:07.345Z,99971.31
2022-08-01T09:53:52.385Z,99967.97
2022-08-01T09:56:22.967Z,99964.31
2022-08-01T09:58:59.337Z,99966.69
2022-08-01T10:01:49.758Z,99967.50
2022-08-01T10:04:21.940Z,99963.22
2022-08-01T10:06:55.508Z,99968.66
2022-08-01T10:09:36.074Z,99964.44
2022-08-01T10:12:15.437Z,99960.69
2022-08-01T10:14:50.715Z,99972.53
2022-08-01T10:17:20.412Z,99968.53
2022-08-01T10:19:55.707Z,99958.88
2022-08-01T10:22:31.095Z,99964.28
2022-08-01T10:25:04.536Z,99960.34
2022-08-01T10:27:38.432Z,99965.34
2022-08-01T10:30:19.770Z,99955.31
2022-08-01T10:32:56.217Z,99960.69
2022-08-01T10:35:47.349Z,99956.84
2022-08-01T10:38:14.269Z,99972.50
2022-08-01T10:40:45.977Z,99961.75
2022-08-01T10:43:21.186Z,99953.31
2022-08-01T10:45:51.414Z,99960.19
2022-08-01T10:48:31.286Z,99959.53
2022-08-01T10:51:05.147Z,99962.94
2022-08-01T10:53:54.815Z,99960.41
2022-08-01T10:56:27.188Z,99944.06
2022-08-01T10:59:06.321Z,99948.06
2022-08-01T11:01:37.517Z,99955.22
2022-08-01T11:04:16.407Z,99949.41
2022-08-01T11:07:16.533Z,99944.53
2022-08-01T11:09:51.445Z,99933.81
2022-08-01T11:12:24.744Z,99935.06
2022-08-01T11:15:17.187Z,99937.75
2022-08-01T11:17:57.140Z,99930.72
2022-08-01T11:20:34.561Z,99920.59
2022-08-01T11:23:07.017Z,99922.31
2022-08-01T11:26:06.606Z,99931.22
2022-08-01T11:28:32.664Z,99928.09
2022-08-01T11:31:11.086Z,99919.31
2022-08-01T11:33:48.631Z,99919.75
2022-08-01T11:36:17.105Z,99916.00
2022-08-01T11:38:59.902Z,99918.81
2022-08-01T11:41:38.204Z,99912.81
2022-08-01T11:44:09.244Z,99918.91
2022-08-01T11:47:08.698Z,99915.91
2022-08-01T11:49:38.842Z,99907.19
2022-08-01T11:52:11.246Z,99912.56
2022-08-01T11:54:40.324Z,99913.47
2022-08-01T11:57:11.209Z,99903.22
2022-08-01T12:00:03.969Z,99903.34
2022-08-01T12:02:40.895Z,99899.72
2022-08-01T12:05:19.355Z,99902.19
2022-08-01T12:07:51.378Z,99895.91
2022-08-01T12:10:21.113Z,99899.53
2022-08-01T12:12:54.055Z,99895.41
2022-08-01T12:15:24.108Z,99901.06
2022-08-01T12:17:59.730Z,99905.53
2022-08-01T12:20:35.772Z,99896.47
2022-08-01T12:23:08.808Z,99904.69
2022-08-01T12:25:37.400Z,99897.88
2022-08-01T12:28:08.537Z,99905.31
2022-08-01T12:30:41.827Z,99898.41
2022-08-01T12:33:11.592Z,99895.66
2022-08-01T12:35:41.872Z,99898.97
2022-08-01T12:38:27.977Z,99902.84
2022-08-01T12:40:56.739Z,99889.03
2022-08-01T12:43:29.412Z,99901.06
2022-08-01T12:46:00.381Z,99890.38
2022-08-01T12:48:29.278Z,99898.72
2022-08-01T12:50:59.253Z,99890.75
2022-08-01T12:53:40.257Z,99883.53
2022-08-01T12:56:11.605Z,99882.38
2022-08-01T12:58:40.101Z,99892.47
2022-08-01T13:01:10.928Z,99880.84
2022-08-01T13:03:39.847Z,99888.31
2022-08-01T13:06:16.606Z,99879.97
2022-08-01T13:08:46.352Z,99877.94
2022-08-01T13:11:16.858Z,99872.44
2022-08-01T13:13:51.042Z,99871.00
2022-08-01T13:16:31.035Z,99874.69
2022-08-01T13:19:07.138Z,99870.66
2022-08-01T13:21:52.830Z,99872.66
2022-08-01T13:24:28.192Z,99876.09
2022-08-01T13:27:01.608Z,99874.22
2022-08-01T13:29:42.404Z,99878.19
2022-08-01T13:32:29.035Z,99870.19
2022-08-01T13:35:09.607Z,99859.75
2022-08-01T13:37:39.318Z,99862.56
2022-08-01T13:40:11.983Z,99863.38
2022-08-01T13:42:39.811Z,99856.50
2022-08-01T13:45:14.205Z,99868.78
2022-08-01T13:48:11.859Z,99878.25
2022-08-01T13:50:33.571Z,99871.09
2022-08-01T13:53:01.343Z,99871.28
2022-08-01T13:55:34.653Z,99862.13
2022-08-01T13:58:03.950Z,99862.41
2022-08-01T14:00:31.831Z,99865.81
2022-08-01T14:02:59.334Z,99865.03
2022-08-01T14:05:26.955Z,99867.66
2022-08-01T14:07:56.197Z,99872.91
2022-08-01T14:10:27.164Z,99874.66
2022-08-01T14:12:58.741Z,99871.22
2022-08-01T14:15:38.268Z,99874.66
2022-08-01T14:18:09.668Z,99878.31
2022-08-01T14:20:40.918Z,99872.41
2022-08-01T14:23:09.680Z,99882.16
2022-08-01T14:26:02.914Z,99867.50
2022-08-01T14:28:31.190Z,99859.88
2022-08-01T14:30:59.111Z,99875.69
2022-08-01T14:33:27.566Z,99879.44
2022-08-01T14:36:06.234Z,99873.50
2022-08-01T14:38:44.388Z,99870.22
2022-08-01T14:41:17.635Z,99871.16
2022-08-01T14:43:45.810Z,99867.78
2022-08-01T14:46:14.247Z,99865.34
2022-08-01T14:48:41.885Z,99870.56
2022-08-01T14:51:10.071Z,99868.06
2022-08-01T14:53:38.623Z,99861.94
2022-08-01T14:56:08.108Z,99863.63
2022-08-01T14:58:35.814Z,99870.47
2022-08-01T15:01:05.544Z,99863.47
2022-08-01T15:03:33.219Z,99858.34
2022-08-01T15:06:01.424Z,99861.91
2022-08-01T15:08:29.613Z,99854.91
2022-08-01T15:10:57.768Z,99858.44
2022-08-01T15:13:25.362Z,99862.84
2022-08-01T15:15:52.854Z,99853.31
2022-08-01T15:18:20.405Z,99855.00
2022-08-01T15:20:47.989Z,99845.56
2022-08-01T15:23:15.560Z,99860.25
2022-08-01T15:25:43.038Z,99853.44
2022-08-01T15:28:11.446Z,99861.34
2022-08-01T15:30:39.795Z,99861.44
2022-08-01T15:33:07.445Z,99851.03
2022-08-01T15:35:35.115Z,99849.31
2022-08-01T15:38:03.250Z,99840.66
2022-08-01T15:40:35.764Z,99847.72
2022-08-01T15:43:03.857Z,99841.69
2022-08-01T15:45:49.413Z,99850.47
2022-08-01T15:48:18.285Z,99847.84
2022-08-01T15:50:46.001Z,99843.44
2022-08-01T15:53:13.628Z,99843.63
2022-08-01T15:55:41.278Z,99840.97
2022-08-01T15:58:11.514Z,99854.22
2022-08-01T16:00:40.037Z,99834.25
2022-08-01T16:03:10.268Z,99850.91
2022-08-01T16:05:43.542Z,99849.22
2022-08-01T16:08:13.305Z,99840.63
2022-08-01T16:10:43.566Z,99845.13
2022-08-01T16:13:11.672Z,99842.50
2022-08-01T16:15:39.646Z,99842.59
2022-08-01T16:18:09.447Z,99843.47
2022-08-01T16:20:41.522Z,99840.06
2022-08-01T16:23:13.013Z,99849.69
2022-08-01T16:25:40.619Z,99844.63
2022-08-01T16:28:09.990Z,99843.75
2022-08-01T16:30:47.958Z,99841.31
2022-08-01T16:33:38.891Z,99851.84
2022-08-01T16:36:16.751Z,99854.38
2022-08-01T16:38:45.668Z,99849.47
2022-08-01T16:41:19.627Z,99855.59
2022-08-01T16:43:54.193Z,99847.00
2022-08-01T16:46:26.945Z,99848.81
2022-08-01T16:48:54.853Z,99855.84
2022-08-01T16:51:22.938Z,99847.19
2022-08-01T16:53:50.460Z,99851.63
2022-08-01T16:56:18.080Z,99856.91
2022-08-01T16:58:45.708Z,99857.84
2022-08-01T17:01:58.541Z,99862.25
2022-08-01T17:04:02.048Z,99858.84
2022-08-01T17:06:30.355Z,99858.06
2022-08-01T17:08:58.831Z,99860.78
2022-08-01T17:11:26.672Z,99861.78
2022-08-01T17:13:54.223Z,99854.00
2022-08-01T17:16:22.184Z,99866.25
2022-08-01T17:18:49.868Z,99856.78
2022-08-01T17:21:21.618Z,99864.63
2022-08-01T17:23:56.208Z,99869.03
2022-08-01T17:26:28.418Z,99870.00
2022-08-01T17:29:01.038Z,99866.59
2022-08-01T17:31:33.872Z,99874.50
2022-08-01T17:34:04.820Z,99874.56
2022-08-01T17:36:33.986Z,99860.72
2022-08-01T17:39:09.495Z,99872.09
2022-08-01T17:41:39.509Z,99872.16
2022-08-01T17:44:07.796Z,99876.56
2022-08-01T17:46:37.524Z,99870.59
2022-08-01T17:49:15.308Z,99879.28
2022-08-01T17:51:43.345Z,99873.28
2022-08-01T17:54:11.697Z,99881.16
2022-08-01T17:56:42.973Z,99865.53
2022-08-01T17:59:13.207Z,99875.13
2022-08-01T18:01:45.347Z,99876.94
2022-08-01T18:04:13.140Z,99885.72
2022-08-01T18:06:58.206Z,99883.09
2022-08-01T18:09:26.503Z,99875.34
2022-08-01T18:11:54.059Z,99880.63
2022-08-01T18:14:21.864Z,99883.28
2022-08-01T18:17:11.238Z,99891.13
2022-08-01T18:19:40.380Z,99887.75
2022-08-01T18:22:31.290Z,99876.41
2022-08-01T18:24:56.308Z,99893.91
2022-08-01T18:27:23.755Z,99890.47
2022-08-01T18:30:11.625Z,99900.94
2022-08-01T18:32:39.198Z,99897.53
2022-08-01T18:35:14.237Z,99902.75
2022-08-01T18:37:47.116Z,99898.44
2022-08-01T18:40:23.518Z,99894.16
2022-08-01T18:42:51.173Z,99900.25
2022-08-01T18:45:19.028Z,99905.53
2022-08-01T18:47:48.428Z,99893.41
2022-08-01T18:50:16.115Z,99894.31
2022-08-01T18:52:43.664Z,99905.63
2022-08-01T18:55:13.650Z,99895.19
2022-08-01T18:57:42.768Z,99896.09
2022-08-01T19:00:11.540Z,99906.53
2022-08-01T19:02:39.115Z,99892.59
2022-08-01T19:05:07.020Z,99912.69
2022-08-01T19:08:05.126Z,99903.13
2022-08-01T19:10:24.723Z,99911.84
2022-08-01T19:12:52.390Z,99904.06
2022-08-01T19:15:19.933Z,99899.75
2022-08-01T19:17:47.577Z,99904.09
2022-08-01T19:20:15.072Z,99908.50
2022-08-01T19:22:42.682Z,99903.28
2022-08-01T19:25:10.383Z,99917.25
2022-08-01T19:27:44.379Z,99919.00
2022-08-01T19:30:12.417Z,99913.78
2022-08-01T19:32:42.933Z,99912.06
2022-08-01T19:35:12.910Z,99911.22
2022-08-01T19:37:45.756Z,99906.91
2022-08-01T19:40:27.076Z,99917.31
2022-08-01T19:42:56.830Z,99922.56
2022-08-01T19:45:29.414Z,99919.13
2022-08-01T19:47:58.039Z,99924.38
2022-08-01T19:50:27.215Z,99916.59
2022-08-01T19:52:57.692Z,99921.81
2022-08-01T19:55:27.095Z,99916.59
2022-08-01T19:58:24.637Z,99918.34
2022-08-01T20:00:44.790Z,99914.03
2022-08-01T20:03:15.170Z,99926.22
2022-08-01T20:05:43.651Z,99906.19
2022-08-01T20:08:12.240Z,99913.16
2022-08-01T20:10:40.953Z,99914.03
2022-08-01T20:13:11.043Z,99908.84
2022-08-01T20:15:39.264Z,99912.34
2022-08-01T20:18:07.458Z,99921.03
2022-08-01T20:20:36.866Z,99922.78
2022-08-01T20:23:10.650Z,99913.22
2022-08-01T20:25:49.659Z,99922.81
2022-08-01T20:28:23.159Z,99914.97
2022-08-01T20:30:54.902Z,99924.56
2022-08-01T20:33:22.748Z,99914.13
2022-08-01T20:35:54.069Z,99929.78
2022-08-01T20:38:24.452Z,99925.44
2022-08-01T20:40:59.350Z,99933.28
2022-08-01T20:43:28.001Z,99928.03
2022-08-01T20:45:56.655Z,99923.72
2022-08-01T20:48:28.151Z,99944.59
2022-08-01T20:51:14.626Z,99938.53
2022-08-01T20:53:49.278Z,99932.44
2022-08-01T20:56:39.507Z,99930.69
2022-08-01T20:59:06.971Z,99935.06
2022-08-01T21:01:40.452Z,99938.56
2022-08-01T21:04:26.050Z,99942.91
2022-08-01T21:07:14.016Z,99946.41
2022-08-01T21:09:42.879Z,99939.47
2022-08-01T21:12:20.743Z,99928.16
2022-08-01T21:15:01.244Z,99942.97
2022-08-01T21:17:45.423Z,99933.38
2022-08-01T21:20:14.707Z,99934.28
2022-08-01T21:22:48.416Z,99936.00
2022-08-01T21:25:21.321Z,99938.63
2022-08-01T21:27:51.817Z,99938.66
2022-08-01T21:30:19.791Z,99937.78
2022-08-01T21:32:49.063Z,99932.56
2022-08-01T21:35:20.982Z,99936.91
2022-08-01T21:37:52.698Z,99937.78
2022-08-01T21:40:22.869Z,99932.56
2022-08-01T21:42:53.398Z,99939.53
2022-08-01T21:45:23.958Z,99933.41
2022-08-01T21:47:52.788Z,99936.03
2022-08-01T21:50:20.858Z,99927.31
2022-08-01T21:52:50.780Z,99930.81
2022-08-01T21:55:35.706Z,99926.44
2022-08-01T21:58:27.853Z,99931.66
2022-08-01T22:01:13.742Z,99929.06
2022-08-01T22:03:49.006Z,99939.50
2022-08-01T22:06:20.320Z,99946.47
2022-08-01T22:08:53.174Z,99938.66
2022-08-01T22:11:31.023Z,99936.00
2022-08-01T22:14:01.985Z,99929.97
2022-08-01T22:16:32.281Z,99937.75
2022-08-01T22:19:03.399Z,99935.16
2022-08-01T22:21:31.589Z,99940.38
2022-08-01T22:23:59.830Z,99922.13
2022-08-01T22:26:29.929Z,99938.63
2022-08-01T22:28:58.744Z,99945.59
2022-08-01T22:31:26.331Z,99943.84
2022-08-01T22:33:54.644Z,99934.31
2022-08-01T22:36:22.563Z,99935.16
2022-08-01T22:38:50.277Z,99925.59
2022-08-01T22:41:21.806Z,99923.88
2022-08-01T22:44:17.892Z,99936.91
2022-08-01T22:47:07.128Z,99943.00
2022-08-01T22:49:40.736Z,99940.34
2022-08-01T22:52:17.940Z,99942.13
2022-08-01T22:55:06.591Z,99932.53
2022-08-01T22:57:58.357Z,99940.38
2022-08-01T23:00:32.234Z,99929.94
2022-08-01T23:03:07.687Z,99935.16
2022-08-01T23:05:41.179Z,99920.34
2022-08-01T23:08:16.156Z,99918.59
2022-08-01T23:10:44.225Z,99919.50
2022-08-01T23:13:14.585Z,99908.19
2022-08-01T23:15:44.321Z,99905.59
2022-08-01T23:18:21.318Z,99920.34
2022-08-01T23:20:50.536Z,99912.53
2022-08-01T23:23:19.208Z,99916.00
2022-08-01T23:26:00.365Z,99915.13
2022-08-01T23:28:29.244Z,99904.69
2022-08-01T23:30:59.061Z,99913.38
2022-08-01T23:33:26.567Z,99911.59
2022-08-01T23:35:54.617Z,99900.31
2022-08-01T23:38:22.172Z,99908.13
2022-08-01T23:40:51.039Z,99907.22
2022-08-01T23:43:21.357Z,99910.72
2022-08-01T23:46:03.475Z,99905.50
2022-08-01T23:48:34.560Z,99908.94
2022-08-01T23:51:02.879Z,99910.69
2022-08-01T23:53:31.383Z,99920.25
2022-08-01T23:56:01.718Z,99915.00
2022-08-01T23:58:30.871Z,99921.06
